createdAt,value
2023-12-18T00:02:52.123Z,63.00
2023-12-18T00:12:53.586Z,62.90
2023-12-18T00:22:55.037Z,62.50
2023-12-18T00:32:56.585Z,62.60
2023-12-18T00:42:58.070Z,62.20
2023-12-18T00:52:59.528Z,62.50
2023-12-18T01:03:00.978Z,62.10
2023-12-18T01:13:02.454Z,62.00
2023-12-18T01:23:05.148Z,62.20
2023-12-18T01:33:07.007Z,61.90
2023-12-18T01:43:08.598Z,61.90
2023-12-18T01:53:10.031Z,61.70
2023-12-18T02:03:11.626Z,61.50
2023-12-18T02:13:13.111Z,61.60
2023-12-18T02:23:14.602Z,61.50
2023-12-18T02:33:16.294Z,61.40
2023-12-18T02:43:18.408Z,61.30
2023-12-18T02:53:19.862Z,61.30
2023-12-18T03:03:21.410Z,60.90
2023-12-18T03:13:22.890Z,60.90
2023-12-18T03:23:24.554Z,60.90
2023-12-18T03:33:26.090Z,60.90
2023-12-18T03:43:27.641Z,60.60
2023-12-18T03:53:29.084Z,60.60
2023-12-18T04:03:33.268Z,60.40
2023-12-18T04:13:35.578Z,60.10
2023-12-18T04:23:37.004Z,60.40
2023-12-18T04:33:38.583Z,60.10
2023-12-18T04:43:40.062Z,60.10
2023-12-18T04:53:41.505Z,60.20
2023-12-18T05:03:43.039Z,60.10
2023-12-18T05:13:44.505Z,60.30
2023-12-18T05:23:45.958Z,60.00
2023-12-18T05:33:47.550Z,60.00
2023-12-18T05:43:49.084Z,59.90
2023-12-18T05:53:50.547Z,59.80
2023-12-18T06:03:52.106Z,59.70
2023-12-18T06:13:53.641Z,59.80
2023-12-18T06:23:55.081Z,59.60
2023-12-18T06:33:56.648Z,59.50
2023-12-18T06:43:58.177Z,57.10
2023-12-18T06:53:59.642Z,56.60
2023-12-18T07:04:01.294Z,56.40
2023-12-18T07:14:02.781Z,57.10
2023-12-18T07:24:04.274Z,55.20
2023-12-18T07:34:05.860Z,55.70
2023-12-18T07:44:07.499Z,55.70
2023-12-18T07:54:09.005Z,56.00
2023-12-18T08:04:10.551Z,55.90
2023-12-18T08:14:17.948Z,56.00
2023-12-18T08:24:19.458Z,56.00
2023-12-18T08:34:20.990Z,56.00
2023-12-18T08:44:22.449Z,56.30
2023-12-18T08:54:24.194Z,56.60
2023-12-18T09:04:25.991Z,56.70
2023-12-18T09:14:27.520Z,56.20
2023-12-18T09:24:29.053Z,56.40
2023-12-18T09:34:30.621Z,56.50
2023-12-18T09:44:32.136Z,56.60
2023-12-18T09:54:36.127Z,56.70
2023-12-18T10:04:38.442Z,56.60
2023-12-18T10:14:41.507Z,56.20
2023-12-18T10:24:44.399Z,56.30
2023-12-18T10:34:46.028Z,56.80
2023-12-18T10:44:49.382Z,56.90
2023-12-18T10:54:50.946Z,57.00
2023-12-18T11:04:52.470Z,56.90
2023-12-18T11:14:53.944Z,57.20
2023-12-18T11:24:55.366Z,57.80
2023-12-18T11:34:56.874Z,58.50
2023-12-18T11:45:03.317Z,58.20
2023-12-18T11:55:12.352Z,58.00
2023-12-18T12:05:13.893Z,58.20
2023-12-18T12:15:23.773Z,57.80
2023-12-18T12:25:25.222Z,58.70
2023-12-18T12:35:26.696Z,58.50
2023-12-18T12:45:28.544Z,59.10
2023-12-18T12:55:30.221Z,58.10
2023-12-18T13:05:31.749Z,58.70
2023-12-18T13:15:33.455Z,58.40
2023-12-18T13:25:35.258Z,59.00
2023-12-18T13:35:36.968Z,59.20
2023-12-18T13:45:38.557Z,59.10
2023-12-18T13:55:41.061Z,58.80
2023-12-18T14:05:42.565Z,59.30
2023-12-18T14:15:44.451Z,59.30
2023-12-18T14:25:46.104Z,59.10
2023-12-18T14:35:47.629Z,58.80
2023-12-18T14:45:49.144Z,58.70
2023-12-18T14:55:50.669Z,59.20
2023-12-18T15:05:52.153Z,59.40
2023-12-18T15:15:53.668Z,58.80
2023-12-18T15:25:55.103Z,58.60
2023-12-18T15:35:58.913Z,59.10
2023-12-18T15:46:03.784Z,59.30
2023-12-18T15:56:05.256Z,59.30
2023-12-18T16:06:06.698Z,59.20
2023-12-18T16:16:08.126Z,59.20
2023-12-18T16:26:10.664Z,59.20
2023-12-18T16:36:13.425Z,59.10
2023-12-18T16:46:14.857Z,58.70
2023-12-18T16:56:16.299Z,58.50
2023-12-18T17:06:17.790Z,58.60
2023-12-18T17:16:19.331Z,58.50
2023-12-18T17:26:20.766Z,58.60
2023-12-18T17:36:22.219Z,58.00
2023-12-18T17:46:23.685Z,57.40
2023-12-18T17:56:25.116Z,57.60
2023-12-18T18:06:26.603Z,57.60
2023-12-18T18:16:28.018Z,57.60
2023-12-18T18:26:29.446Z,57.80
2023-12-18T18:36:31.129Z,58.10
2023-12-18T18:46:32.604Z,58.30
2023-12-18T18:56:34.041Z,58.30
2023-12-18T19:06:35.522Z,58.20
2023-12-18T19:16:36.977Z,58.70
2023-12-18T19:26:38.388Z,60.20
2023-12-18T19:36:39.887Z,60.50
2023-12-18T19:46:41.332Z,60.80
2023-12-18T19:56:42.756Z,61.20
2023-12-18T20:06:44.222Z,61.30
2023-12-18T20:16:47.041Z,61.60
2023-12-18T20:26:49.557Z,61.50
2023-12-18T20:36:51.075Z,61.50
2023-12-18T20:46:52.558Z,61.70
2023-12-18T20:56:54.100Z,61.50
2023-12-18T21:06:55.549Z,61.90
2023-12-18T21:16:57.000Z,61.20
2023-12-18T21:26:58.439Z,61.30
2023-12-18T21:36:59.943Z,61.10
2023-12-18T21:47:01.446Z,61.30
2023-12-18T21:57:02.897Z,61.10
2023-12-18T22:07:04.514Z,61.30
2023-12-18T22:17:05.993Z,62.30
2023-12-18T22:27:07.434Z,61.20
2023-12-18T22:37:09.132Z,61.40
2023-12-18T22:47:10.665Z,61.40
2023-12-18T22:57:12.102Z,61.50
2023-12-18T23:07:13.552Z,61.60
2023-12-18T23:17:14.984Z,61.60
2023-12-18T23:27:16.413Z,61.70
2023-12-18T23:37:17.852Z,61.80
2023-12-18T23:47:19.276Z,61.80
2023-12-18T23:57:20.758Z,61.80
